sensor_id;sensor_type;location;lat;lon;timestamp;P1;durP1;ratioP1;P2;durP2;ratioP2
59416;SDS011;45222;52.458;20.914;2023-02-15T00:01:25;54.90;;;42.50;;
59416;SDS011;45222;52.458;20.914;2023-02-15T00:05:11;55.50;;;24.60;;
59416;SDS011;45222;52.458;20.914;2023-02-15T00:08:56;51.30;;;23.90;;
59416;SDS011;45222;52.458;20.914;2023-02-15T00:12:42;57.60;;;45.30;;
59416;SDS011;45222;52.458;20.914;2023-02-15T00:16:28;63.40;;;27.20;;
59416;SDS011;45222;52.458;20.914;2023-02-15T00:20:13;67.60;;;28.40;;
59416;SDS011;45222;52.458;20.914;2023-02-15T00:24:02;64.30;;;28.70;;
59416;SDS011;45222;52.458;20.914;2023-02-15T00:27:49;52.30;;;24.80;;
59416;SDS011;45222;52.458;20.914;2023-02-15T00:31:35;56.80;;;44.90;;
59416;SDS011;45222;52.458;20.914;2023-02-15T00:35:20;63.90;;;47.70;;
59416;SDS011;45222;52.458;20.914;2023-02-15T00:39:06;59.00;;;44.70;;
59416;SDS011;45222;52.458;20.914;2023-02-15T00:42:51;53.60;;;25.40;;
59416;SDS011;45222;52.458;20.914;2023-02-15T00:46:36;50.20;;;40.80;;
59416;SDS011;45222;52.458;20.914;2023-02-15T00:50:22;50.90;;;23.20;;
59416;SDS011;45222;52.458;20.914;2023-02-15T00:54:07;56.20;;;43.80;;
59416;SDS011;45222;52.458;20.914;2023-02-15T00:57:52;61.20;;;47.00;;
59416;SDS011;45222;52.458;20.914;2023-02-15T01:01:38;58.70;;;26.70;;
59416;SDS011;45222;52.458;20.914;2023-02-15T01:05:23;52.80;;;44.10;;
59416;SDS011;45222;52.458;20.914;2023-02-15T01:09:08;51.70;;;25.00;;
59416;SDS011;45222;52.458;20.914;2023-02-15T01:12:54;58.30;;;44.30;;
59416;SDS011;45222;52.458;20.914;2023-02-15T01:16:39;59.70;;;47.60;;
59416;SDS011;45222;52.458;20.914;2023-02-15T01:20:25;62.00;;;49.00;;
59416;SDS011;45222;52.458;20.914;2023-02-15T01:24:13;64.70;;;51.30;;
59416;SDS011;45222;52.458;20.914;2023-02-15T01:27:58;62.60;;;47.50;;
59416;SDS011;45222;52.458;20.914;2023-02-15T01:31:44;61.10;;;27.40;;
59416;SDS011;45222;52.458;20.914;2023-02-15T01:35:29;55.80;;;43.20;;
59416;SDS011;45222;52.458;20.914;2023-02-15T01:39:14;55.30;;;24.70;;
59416;SDS011;45222;52.458;20.914;2023-02-15T01:43:00;52.10;;;24.50;;
59416;SDS011;45222;52.458;20.914;2023-02-15T01:46:46;58.70;;;47.00;;
59416;SDS011;45222;52.458;20.914;2023-02-15T01:50:36;57.20;;;26.10;;
59416;SDS011;45222;52.458;20.914;2023-02-15T01:54:25;54.20;;;43.00;;
59416;SDS011;45222;52.458;20.914;2023-02-15T01:58:15;54.10;;;42.80;;
59416;SDS011;45222;52.458;20.914;2023-02-15T02:02:00;54.00;;;25.70;;
59416;SDS011;45222;52.458;20.914;2023-02-15T02:05:47;56.30;;;25.40;;
59416;SDS011;45222;52.458;20.914;2023-02-15T02:09:34;58.30;;;46.90;;
59416;SDS011;45222;52.458;20.914;2023-02-15T02:13:19;61.30;;;27.50;;
59416;SDS011;45222;52.458;20.914;2023-02-15T02:17:06;64.00;;;27.80;;
59416;SDS011;45222;52.458;20.914;2023-02-15T02:21:13;60.70;;;28.30;;
59416;SDS011;45222;52.458;20.914;2023-02-15T02:25:19;60.00;;;46.50;;
59416;SDS011;45222;52.458;20.914;2023-02-15T02:29:36;59.90;;;46.80;;
59416;SDS011;45222;52.458;20.914;2023-02-15T08:14:47;37.50;;;32.00;;
59416;SDS011;45222;52.458;20.914;2023-02-15T08:18:45;39.30;;;32.60;;
59416;SDS011;45222;52.458;20.914;2023-02-15T08:22:50;41.10;;;17.70;;
59416;SDS011;45222;52.458;20.914;2023-02-15T08:26:43;34.50;;;29.40;;
59416;SDS011;45222;52.458;20.914;2023-02-15T08:30:49;40.60;;;19.30;;
59416;SDS011;45222;52.458;20.914;2023-02-15T08:34:35;30.70;;;26.20;;
59416;SDS011;45222;52.458;20.914;2023-02-15T08:38:30;27.80;;;23.70;;
59416;SDS011;45222;52.458;20.914;2023-02-15T08:42:29;32.70;;;25.40;;
59416;SDS011;45222;52.458;20.914;2023-02-15T08:46:16;31.60;;;14.40;;
59416;SDS011;45222;52.458;20.914;2023-02-15T08:50:09;35.10;;;28.70;;
59416;SDS011;45222;52.458;20.914;2023-02-15T08:54:08;31.10;;;26.60;;
59416;SDS011;45222;52.458;20.914;2023-02-15T08:57:55;38.70;;;18.00;;
59416;SDS011;45222;52.458;20.914;2023-02-15T09:01:49;28.90;;;24.00;;
59416;SDS011;45222;52.458;20.914;2023-02-15T09:05:49;27.90;;;24.00;;
59416;SDS011;45222;52.458;20.914;2023-02-15T09:09:34;30.10;;;13.70;;
59416;SDS011;45222;52.458;20.914;2023-02-15T09:13:27;29.50;;;14.80;;
59416;SDS011;45222;52.458;20.914;2023-02-15T09:17:26;30.00;;;14.90;;
59416;SDS011;45222;52.458;20.914;2023-02-15T09:21:12;31.20;;;27.00;;
59416;SDS011;45222;52.458;20.914;2023-02-15T09:25:05;35.50;;;16.50;;
59416;SDS011;45222;52.458;20.914;2023-02-15T09:29:04;28.80;;;24.10;;
59416;SDS011;45222;52.458;20.914;2023-02-15T09:32:49;27.80;;;24.10;;
59416;SDS011;45222;52.458;20.914;2023-02-15T09:36:41;28.90;;;25.70;;
59416;SDS011;45222;52.458;20.914;2023-02-15T09:40:41;27.50;;;24.60;;
59416;SDS011;45222;52.458;20.914;2023-02-15T09:49:05;32.50;;;25.80;;
59416;SDS011;45222;52.458;20.914;2023-02-15T09:53:18;33.60;;;15.80;;
59416;SDS011;45222;52.458;20.914;2023-02-15T09:57:36;36.00;;;16.70;;
59416;SDS011;45222;52.458;20.914;2023-02-15T10:01:30;29.60;;;14.20;;
59416;SDS011;45222;52.458;20.914;2023-02-15T10:05:33;30.00;;;25.60;;
59416;SDS011;45222;52.458;20.914;2023-02-15T10:09:44;32.50;;;27.90;;
59416;SDS011;45222;52.458;20.914;2023-02-15T10:13:38;32.90;;;15.70;;
59416;SDS011;45222;52.458;20.914;2023-02-15T10:17:44;28.60;;;24.20;;
59416;SDS011;45222;52.458;20.914;2023-02-15T10:21:54;28.30;;;23.80;;
59416;SDS011;45222;52.458;20.914;2023-02-15T10:25:51;29.80;;;25.00;;
59416;SDS011;45222;52.458;20.914;2023-02-15T10:29:58;29.20;;;24.20;;
59416;SDS011;45222;52.458;20.914;2023-02-15T10:34:09;26.60;;;12.60;;
59416;SDS011;45222;52.458;20.914;2023-02-15T10:38:03;33.70;;;26.90;;
59416;SDS011;45222;52.458;20.914;2023-02-15T10:42:05;34.40;;;26.00;;
59416;SDS011;45222;52.458;20.914;2023-02-15T10:46:14;26.90;;;21.60;;
59416;SDS011;45222;52.458;20.914;2023-02-15T10:50:22;27.50;;;12.80;;
59416;SDS011;45222;52.458;20.914;2023-02-15T10:54:35;27.30;;;21.20;;
59416;SDS011;45222;52.458;20.914;2023-02-15T10:58:37;28.50;;;22.20;;
59416;SDS011;45222;52.458;20.914;2023-02-15T11:02:56;24.80;;;11.10;;
59416;SDS011;45222;52.458;20.914;2023-02-15T11:06:50;25.70;;;10.80;;
59416;SDS011;45222;52.458;20.914;2023-02-15T11:10:47;26.90;;;11.00;;
59416;SDS011;45222;52.458;20.914;2023-02-15T11:14:51;55.40;;;32.10;;
59416;SDS011;45222;52.458;20.914;2023-02-15T11:18:41;30.80;;;20.90;;
59416;SDS011;45222;52.458;20.914;2023-02-15T11:22:38;34.50;;;25.60;;
59416;SDS011;45222;52.458;20.914;2023-02-15T11:26:39;46.80;;;17.70;;
59416;SDS011;45222;52.458;20.914;2023-02-15T11:30:37;35.50;;;28.70;;
59416;SDS011;45222;52.458;20.914;2023-02-15T11:34:44;32.40;;;25.10;;
59416;SDS011;45222;52.458;20.914;2023-02-15T11:38:35;29.90;;;11.80;;
59416;SDS011;45222;52.458;20.914;2023-02-15T11:42:32;34.60;;;28.80;;
59416;SDS011;45222;52.458;20.914;2023-02-15T11:46:39;27.20;;;21.70;;
59416;SDS011;45222;52.458;20.914;2023-02-15T11:50:31;28.90;;;22.50;;
59416;SDS011;45222;52.458;20.914;2023-02-15T11:54:36;31.80;;;23.80;;
59416;SDS011;45222;52.458;20.914;2023-02-15T11:58:28;31.30;;;12.70;;
59416;SDS011;45222;52.458;20.914;2023-02-15T12:02:25;32.80;;;24.90;;
59416;SDS011;45222;52.458;20.914;2023-02-15T12:06:27;34.50;;;14.10;;
59416;SDS011;45222;52.458;20.914;2023-02-15T12:10:23;34.70;;;15.00;;
59416;SDS011;45222;52.458;20.914;2023-02-15T12:14:24;37.20;;;25.80;;
59416;SDS011;45222;52.458;20.914;2023-02-15T12:18:16;29.00;;;11.80;;
59416;SDS011;45222;52.458;20.914;2023-02-15T12:22:18;36.50;;;27.10;;
59416;SDS011;45222;52.458;20.914;2023-02-15T12:26:24;39.10;;;15.50;;
59416;SDS011;45222;52.458;20.914;2023-02-15T12:30:15;33.60;;;26.00;;
59416;SDS011;45222;52.458;20.914;2023-02-15T12:34:21;32.40;;;24.40;;
59416;SDS011;45222;52.458;20.914;2023-02-15T12:38:23;33.70;;;24.70;;
59416;SDS011;45222;52.458;20.914;2023-02-15T12:42:15;33.40;;;24.50;;
59416;SDS011;45222;52.458;20.914;2023-02-15T12:46:14;31.20;;;23.20;;
59416;SDS011;45222;52.458;20.914;2023-02-15T12:50:22;27.60;;;21.00;;
59416;SDS011;45222;52.458;20.914;2023-02-15T12:54:21;27.90;;;20.60;;
59416;SDS011;45222;52.458;20.914;2023-02-15T12:58:23;25.30;;;18.60;;
59416;SDS011;45222;52.458;20.914;2023-02-15T13:02:27;23.10;;;18.10;;
59416;SDS011;45222;52.458;20.914;2023-02-15T13:06:14;24.30;;;11.30;;
59416;SDS011;45222;52.458;20.914;2023-02-15T13:10:18;29.30;;;22.30;;
59416;SDS011;45222;52.458;20.914;2023-02-15T13:14:21;36.10;;;24.80;;
59416;SDS011;45222;52.458;20.914;2023-02-15T13:18:12;25.90;;;11.40;;
59416;SDS011;45222;52.458;20.914;2023-02-15T13:26:30;28.60;;;10.40;;
59416;SDS011;45222;52.458;20.914;2023-02-15T13:30:26;27.80;;;21.30;;
59416;SDS011;45222;52.458;20.914;2023-02-15T13:34:22;31.20;;;14.20;;
59416;SDS011;45222;52.458;20.914;2023-02-15T13:38:29;29.90;;;22.30;;
59416;SDS011;45222;52.458;20.914;2023-02-15T13:42:30;30.00;;;23.60;;
59416;SDS011;45222;52.458;20.914;2023-02-15T13:46:31;31.20;;;13.60;;
59416;SDS011;45222;52.458;20.914;2023-02-15T13:50:37;33.20;;;21.00;;
59416;SDS011;45222;52.458;20.914;2023-02-15T13:54:46;32.50;;;24.40;;
59416;SDS011;45222;52.458;20.914;2023-02-15T14:07:44;37.30;;;27.10;;
59416;SDS011;45222;52.458;20.914;2023-02-15T14:11:59;36.00;;;26.60;;
59416;SDS011;45222;52.458;20.914;2023-02-15T14:16:08;38.60;;;26.80;;
59416;SDS011;45222;52.458;20.914;2023-02-15T14:20:15;36.90;;;15.20;;
59416;SDS011;45222;52.458;20.914;2023-02-15T14:24:26;37.90;;;27.60;;
59416;SDS011;45222;52.458;20.914;2023-02-15T14:28:41;37.80;;;28.50;;
59416;SDS011;45222;52.458;20.914;2023-02-15T14:36:36;43.80;;;28.80;;
59416;SDS011;45222;52.458;20.914;2023-02-15T14:40:32;41.80;;;15.70;;
59416;SDS011;45222;52.458;20.914;2023-02-15T14:44:56;37.10;;;28.70;;
59416;SDS011;45222;52.458;20.914;2023-02-15T14:48:47;44.30;;;16.90;;
59416;SDS011;45222;52.458;20.914;2023-02-15T14:52:50;39.50;;;28.80;;
59416;SDS011;45222;52.458;20.914;2023-02-15T14:57:29;42.10;;;29.40;;
59416;SDS011;45222;52.458;20.914;2023-02-15T15:01:24;33.90;;;14.50;;
59416;SDS011;45222;52.458;20.914;2023-02-15T15:05:20;42.50;;;15.30;;
59416;SDS011;45222;52.458;20.914;2023-02-15T15:09:22;41.60;;;16.60;;
59416;SDS011;45222;52.458;20.914;2023-02-15T15:21:54;43.60;;;30.30;;
59416;SDS011;45222;52.458;20.914;2023-02-15T15:25:54;39.30;;;28.20;;
59416;SDS011;45222;52.458;20.914;2023-02-15T15:29:54;40.70;;;16.00;;
59416;SDS011;45222;52.458;20.914;2023-02-15T15:34:00;40.60;;;29.80;;
59416;SDS011;45222;52.458;20.914;2023-02-15T15:42:32;40.80;;;15.60;;
59416;SDS011;45222;52.458;20.914;2023-02-15T15:46:54;45.40;;;18.60;;
59416;SDS011;45222;52.458;20.914;2023-02-15T15:51:10;36.00;;;15.30;;
59416;SDS011;45222;52.458;20.914;2023-02-15T15:55:14;38.90;;;29.20;;
59416;SDS011;45222;52.458;20.914;2023-02-15T15:59:02;40.60;;;30.30;;
59416;SDS011;45222;52.458;20.914;2023-02-15T16:02:56;43.40;;;30.00;;
59416;SDS011;45222;52.458;20.914;2023-02-15T16:06:55;43.10;;;16.40;;
59416;SDS011;45222;52.458;20.914;2023-02-15T16:10:41;41.10;;;30.50;;
59416;SDS011;45222;52.458;20.914;2023-02-15T16:14:35;43.40;;;31.90;;
59416;SDS011;45222;52.458;20.914;2023-02-15T16:18:41;44.30;;;32.30;;
59416;SDS011;45222;52.458;20.914;2023-02-15T16:22:27;41.90;;;31.90;;
59416;SDS011;45222;52.458;20.914;2023-02-15T16:26:22;39.00;;;29.10;;
59416;SDS011;45222;52.458;20.914;2023-02-15T16:30:38;42.70;;;16.40;;
59416;SDS011;45222;52.458;20.914;2023-02-15T16:34:25;39.80;;;28.50;;
59416;SDS011;45222;52.458;20.914;2023-02-15T16:38:17;43.50;;;32.00;;
59416;SDS011;45222;52.458;20.914;2023-02-15T16:42:24;37.80;;;15.80;;
59416;SDS011;45222;52.458;20.914;2023-02-15T16:46:10;42.30;;;17.50;;
59416;SDS011;45222;52.458;20.914;2023-02-15T16:50:10;49.60;;;35.40;;
59416;SDS011;45222;52.458;20.914;2023-02-15T16:54:18;49.60;;;35.10;;
59416;SDS011;45222;52.458;20.914;2023-02-15T16:58:06;44.50;;;31.90;;
59416;SDS011;45222;52.458;20.914;2023-02-15T17:02:05;46.10;;;17.40;;
59416;SDS011;45222;52.458;20.914;2023-02-15T17:06:19;47.20;;;16.40;;
59416;SDS011;45222;52.458;20.914;2023-02-15T17:10:16;45.10;;;32.40;;
59416;SDS011;45222;52.458;20.914;2023-02-15T17:14:21;43.90;;;31.50;;
59416;SDS011;45222;52.458;20.914;2023-02-15T17:18:25;44.20;;;32.20;;
59416;SDS011;45222;52.458;20.914;2023-02-15T17:22:17;38.60;;;27.80;;
59416;SDS011;45222;52.458;20.914;2023-02-15T17:26:12;40.40;;;14.90;;
59416;SDS011;45222;52.458;20.914;2023-02-15T17:30:22;41.20;;;28.30;;
59416;SDS011;45222;52.458;20.914;2023-02-15T17:34:12;48.00;;;30.20;;
59416;SDS011;45222;52.458;20.914;2023-02-15T17:43:04;40.30;;;28.80;;
59416;SDS011;45222;52.458;20.914;2023-02-15T17:46:53;40.30;;;28.90;;
59416;SDS011;45222;52.458;20.914;2023-02-15T17:50:46;41.50;;;29.00;;
59416;SDS011;45222;52.458;20.914;2023-02-15T17:54:44;40.90;;;16.40;;
59416;SDS011;45222;52.458;20.914;2023-02-15T17:58:48;43.70;;;16.00;;
59416;SDS011;45222;52.458;20.914;2023-02-15T18:02:39;45.90;;;31.80;;
59416;SDS011;45222;52.458;20.914;2023-02-15T18:06:50;47.80;;;17.70;;
59416;SDS011;45222;52.458;20.914;2023-02-15T18:11:00;40.00;;;28.90;;
59416;SDS011;45222;52.458;20.914;2023-02-15T18:15:16;38.30;;;27.00;;
59416;SDS011;45222;52.458;20.914;2023-02-15T18:19:22;38.60;;;27.40;;
59416;SDS011;45222;52.458;20.914;2023-02-15T18:23:09;35.40;;;15.00;;
59416;SDS011;45222;52.458;20.914;2023-02-15T18:27:03;40.20;;;28.70;;
59416;SDS011;45222;52.458;20.914;2023-02-15T18:31:04;35.70;;;27.10;;
59416;SDS011;45222;52.458;20.914;2023-02-15T18:34:56;36.70;;;14.20;;
59416;SDS011;45222;52.458;20.914;2023-02-15T18:42:51;34.20;;;13.70;;
59416;SDS011;45222;52.458;20.914;2023-02-15T18:46:43;33.50;;;14.50;;
59416;SDS011;45222;52.458;20.914;2023-02-15T18:50:41;39.00;;;27.40;;
59416;SDS011;45222;52.458;20.914;2023-02-15T18:54:26;38.80;;;28.40;;
59416;SDS011;45222;52.458;20.914;2023-02-15T18:58:25;34.50;;;14.90;;
59416;SDS011;45222;52.458;20.914;2023-02-15T19:02:12;40.40;;;28.90;;
59416;SDS011;45222;52.458;20.914;2023-02-15T19:06:07;41.80;;;29.40;;
59416;SDS011;45222;52.458;20.914;2023-02-15T19:10:00;42.80;;;30.60;;
59416;SDS011;45222;52.458;20.914;2023-02-15T19:14:10;42.30;;;30.80;;
59416;SDS011;45222;52.458;20.914;2023-02-15T19:18:13;43.50;;;31.40;;
59416;SDS011;45222;52.458;20.914;2023-02-15T19:22:20;40.90;;;30.80;;
59416;SDS011;45222;52.458;20.914;2023-02-15T19:26:09;40.60;;;16.30;;
59416;SDS011;45222;52.458;20.914;2023-02-15T19:30:02;39.90;;;29.60;;
59416;SDS011;45222;52.458;20.914;2023-02-15T19:34:13;43.50;;;17.70;;
59416;SDS011;45222;52.458;20.914;2023-02-15T19:38:00;36.80;;;17.20;;
59416;SDS011;45222;52.458;20.914;2023-02-15T19:41:54;42.90;;;31.30;;
59416;SDS011;45222;52.458;20.914;2023-02-15T19:45:52;40.70;;;31.00;;
59416;SDS011;45222;52.458;20.914;2023-02-15T19:49:45;39.20;;;29.60;;
59416;SDS011;45222;52.458;20.914;2023-02-15T19:53:55;40.50;;;16.90;;
59416;SDS011;45222;52.458;20.914;2023-02-15T19:57:41;39.90;;;30.40;;
59416;SDS011;45222;52.458;20.914;2023-02-15T20:01:32;41.00;;;31.10;;
59416;SDS011;45222;52.458;20.914;2023-02-15T20:05:31;43.60;;;17.40;;
59416;SDS011;45222;52.458;20.914;2023-02-15T20:09:27;44.60;;;33.80;;
59416;SDS011;45222;52.458;20.914;2023-02-15T20:13:34;38.80;;;16.50;;
59416;SDS011;45222;52.458;20.914;2023-02-15T20:17:39;40.00;;;30.30;;
59416;SDS011;45222;52.458;20.914;2023-02-15T20:21:25;42.10;;;31.60;;
59416;SDS011;45222;52.458;20.914;2023-02-15T20:25:31;41.50;;;30.10;;
59416;SDS011;45222;52.458;20.914;2023-02-15T20:29:17;43.20;;;31.70;;
59416;SDS011;45222;52.458;20.914;2023-02-15T20:33:10;44.30;;;32.80;;
59416;SDS011;45222;52.458;20.914;2023-02-15T20:37:09;42.80;;;32.40;;
59416;SDS011;45222;52.458;20.914;2023-02-15T20:41:14;42.40;;;17.80;;
59416;SDS011;45222;52.458;20.914;2023-02-15T20:45:39;43.60;;;32.60;;
59416;SDS011;45222;52.458;20.914;2023-02-15T20:49:32;40.50;;;17.20;;
59416;SDS011;45222;52.458;20.914;2023-02-15T20:53:30;47.50;;;18.20;;
59416;SDS011;45222;52.458;20.914;2023-02-15T20:57:16;50.40;;;37.90;;
59416;SDS011;45222;52.458;20.914;2023-02-15T21:01:20;48.60;;;19.10;;
59416;SDS011;45222;52.458;20.914;2023-02-15T21:05:12;58.00;;;42.00;;
59416;SDS011;45222;52.458;20.914;2023-02-15T21:09:05;55.10;;;39.80;;
59416;SDS011;45222;52.458;20.914;2023-02-15T21:13:08;53.00;;;22.30;;
59416;SDS011;45222;52.458;20.914;2023-02-15T21:17:11;50.50;;;37.60;;
59416;SDS011;45222;52.458;20.914;2023-02-15T21:21:13;49.30;;;36.70;;
59416;SDS011;45222;52.458;20.914;2023-02-15T21:25:05;46.20;;;17.70;;
59416;SDS011;45222;52.458;20.914;2023-02-15T21:29:03;41.10;;;17.90;;
59416;SDS011;45222;52.458;20.914;2023-02-15T21:33:02;47.10;;;34.20;;
59416;SDS011;45222;52.458;20.914;2023-02-15T21:36:47;45.50;;;33.20;;
59416;SDS011;45222;52.458;20.914;2023-02-15T21:40:39;47.50;;;19.00;;
59416;SDS011;45222;52.458;20.914;2023-02-15T21:44:38;43.30;;;18.20;;
59416;SDS011;45222;52.458;20.914;2023-02-15T21:48:42;46.40;;;34.00;;
59416;SDS011;45222;52.458;20.914;2023-02-15T21:52:34;50.50;;;19.60;;
59416;SDS011;45222;52.458;20.914;2023-02-15T21:56:32;45.00;;;17.60;;
59416;SDS011;45222;52.458;20.914;2023-02-15T22:00:18;48.50;;;34.90;;
59416;SDS011;45222;52.458;20.914;2023-02-15T22:04:12;43.60;;;17.40;;
59416;SDS011;45222;52.458;20.914;2023-02-15T22:08:15;41.20;;;30.70;;
59416;SDS011;45222;52.458;20.914;2023-02-15T22:12:00;42.60;;;30.80;;
59416;SDS011;45222;52.458;20.914;2023-02-15T22:16:05;40.00;;;16.40;;
59416;SDS011;45222;52.458;20.914;2023-02-15T22:19:55;41.80;;;16.10;;
59416;SDS011;45222;52.458;20.914;2023-02-15T22:24:00;47.30;;;33.00;;
59416;SDS011;45222;52.458;20.914;2023-02-15T22:27:45;39.80;;;17.00;;
59416;SDS011;45222;52.458;20.914;2023-02-15T22:31:39;41.60;;;16.40;;
59416;SDS011;45222;52.458;20.914;2023-02-15T22:35:37;51.00;;;36.10;;
59416;SDS011;45222;52.458;20.914;2023-02-15T22:39:22;46.20;;;33.30;;
59416;SDS011;45222;52.458;20.914;2023-02-15T22:43:21;48.10;;;17.70;;
59416;SDS011;45222;52.458;20.914;2023-02-15T22:47:26;42.60;;;30.10;;
59416;SDS011;45222;52.458;20.914;2023-02-15T22:51:14;36.10;;;15.80;;
59416;SDS011;45222;52.458;20.914;2023-02-15T22:55:11;43.50;;;16.80;;
59416;SDS011;45222;52.458;20.914;2023-02-15T22:59:12;49.30;;;33.10;;
59416;SDS011;45222;52.458;20.914;2023-02-15T23:03:22;50.10;;;35.30;;
59416;SDS011;45222;52.458;20.914;2023-02-15T23:07:12;45.80;;;16.00;;
59416;SDS011;45222;52.458;20.914;2023-02-15T23:11:08;47.40;;;17.20;;
59416;SDS011;45222;52.458;20.914;2023-02-15T23:15:09;47.80;;;33.30;;
59416;SDS011;45222;52.458;20.914;2023-02-15T23:19:01;48.20;;;18.00;;
59416;SDS011;45222;52.458;20.914;2023-02-15T23:23:02;51.30;;;33.60;;
59416;SDS011;45222;52.458;20.914;2023-02-15T23:26:48;44.20;;;16.60;;
59416;SDS011;45222;52.458;20.914;2023-02-15T23:30:40;41.00;;;16.80;;
59416;SDS011;45222;52.458;20.914;2023-02-15T23:34:39;39.80;;;16.40;;
59416;SDS011;45222;52.458;20.914;2023-02-15T23:38:27;55.60;;;36.40;;
59416;SDS011;45222;52.458;20.914;2023-02-15T23:42:20;47.00;;;19.40;;
59416;SDS011;45222;52.458;20.914;2023-02-15T23:46:24;64.20;;;19.40;;
59416;SDS011;45222;52.458;20.914;2023-02-15T23:54:09;49.90;;;18.40;;
59416;SDS011;45222;52.458;20.914;2023-02-15T23:58:11;47.70;;;19.20;;
